Cielo Di Vaiano — D5AQ2 — position and weather

sailwx.info

Track history (hours):
 
Tides and Currents Weather Stations Pressure Air Temp Water Temp Dewpoint Dewpoint Depression Visibility Wind Speed Wind Dir Waves Ship Positions

Cielo Di Vaiano

Last reported at 2014-Sep-29 04:12 UTC. Time now 2014-Sep-30 22:00 UTC.
Position N 40°44' E 029°43'.

Length 183 m; draft 7.9 m.

Type: Cargo ship. MMSI: 636015421.

Date/timePositionNaut miles runAvg speedWind from/ knotsBaromVisibWave heightAir tempDewpointWater temp
2014-Sep-29 04:12N 40°44' E 029°43'911.5
2014-Sep-29 03:25N 40°45' E 029°32'8 8.7
2014-Sep-29 02:28N 40°44' E 029°21'1111.7
2014-Sep-29 01:33N 40°43' E 029°07'1312.6
2014-Sep-29 00:33N 40°43' E 028°50'261 9.7
2014-Sep-27 21:29N 37°53' E 024°34'12 9.5
2014-Sep-27 20:14N 37°42' E 024°30'711.0
2014-Sep-27 19:33N 37°35' E 024°27'1111.4
2014-Sep-27 18:34N 37°26' E 024°17'1110.9
2014-Sep-27 17:33N 37°18' E 024°08'1111.1
2014-Sep-27 16:33N 37°10' E 023°59'1110.9
2014-Sep-27 15:33N 37°00' E 023°52'1110.8
2014-Sep-27 14:31N 36°50' E 023°47'1110.7
2014-Sep-27 13:32N 36°40' E 023°42'  
2014-Sep-19 17:07N 39°52' E 014°26'812.5
2014-Sep-19 16:29N 39°59' E 014°20'1212.6
2014-Sep-19 15:34N 40°08' E 014°11'1312.8
2014-Sep-19 14:34N 40°18' E 014°01'  
Track history (hours):
 
Tides and Currents Weather Stations Pressure Air Temp Water Temp Dewpoint Dewpoint Depression Visibility Wind Speed Wind Dir Waves Ship Positions

Cielo Di Vaiano

Last reported at 2014-Sep-29 04:12 UTC. Time now 2014-Sep-30 22:00 UTC.
Position N 40°44' E 029°43'.

Length 183 m; draft 7.9 m.

Type: Cargo ship. MMSI: 636015421.

Date/timePositionNaut miles runAvg speedWind from/ knotsBaromVisibWave heightAir tempDewpointWater temp
2014-Sep-29 04:12N 40°44' E 029°43'911.5
2014-Sep-29 03:25N 40°45' E 029°32'8 8.7
2014-Sep-29 02:28N 40°44' E 029°21'1111.7
2014-Sep-29 01:33N 40°43' E 029°07'1312.6
2014-Sep-29 00:33N 40°43' E 028°50'261 9.7
2014-Sep-27 21:29N 37°53' E 024°34'12 9.5
2014-Sep-27 20:14N 37°42' E 024°30'711.0
2014-Sep-27 19:33N 37°35' E 024°27'1111.4
2014-Sep-27 18:34N 37°26' E 024°17'1110.9
2014-Sep-27 17:33N 37°18' E 024°08'1111.1
2014-Sep-27 16:33N 37°10' E 023°59'1110.9
2014-Sep-27 15:33N 37°00' E 023°52'1110.8
2014-Sep-27 14:31N 36°50' E 023°47'1110.7
2014-Sep-27 13:32N 36°40' E 023°42'  
2014-Sep-19 17:07N 39°52' E 014°26'812.5
2014-Sep-19 16:29N 39°59' E 014°20'1212.6
2014-Sep-19 15:34N 40°08' E 014°11'1312.8
2014-Sep-19 14:34N 40°18' E 014°01'  

Dump ship's entire track history